createdAt,value
2023-08-07T00:02:19.865Z,71.30
2023-08-07T00:04:47.919Z,71.10
2023-08-07T00:07:16.379Z,71.40
2023-08-07T00:14:29.971Z,72.10
2023-08-07T00:17:04.521Z,71.90
2023-08-07T00:19:32.752Z,71.80
2023-08-07T00:26:07.283Z,72.50
2023-08-07T00:29:14.794Z,72.10
2023-08-07T00:31:55.910Z,72.30
2023-08-07T00:35:00.638Z,72.20
2023-08-07T00:37:30.763Z,72.60
2023-08-07T00:39:58.689Z,72.30
2023-08-07T00:42:28.983Z,72.10
2023-08-07T00:44:57.286Z,72.20
2023-08-07T00:47:28.337Z,72.20
2023-08-07T00:50:04.710Z,71.90
2023-08-07T00:52:34.393Z,72.00
2023-08-07T00:55:02.670Z,71.90
2023-08-07T00:57:32.832Z,72.00
2023-08-07T01:00:02.916Z,71.70
2023-08-07T01:02:31.860Z,71.60
2023-08-07T01:05:00.487Z,71.90
2023-08-07T01:07:27.963Z,71.70
2023-08-07T01:09:57.860Z,71.70
2023-08-07T01:12:49.814Z,71.50
2023-08-07T01:15:30.453Z,71.80
2023-08-07T01:21:50.695Z,71.50
2023-08-07T01:24:18.281Z,72.40
2023-08-07T01:26:55.397Z,71.50
2023-08-07T01:29:33.912Z,71.60
2023-08-07T01:32:08.797Z,71.80
2023-08-07T01:34:42.566Z,71.70
2023-08-07T01:37:14.442Z,71.70
2023-08-07T01:39:43.324Z,71.50
2023-08-07T01:42:11.698Z,72.10
2023-08-07T01:44:42.402Z,71.70
2023-08-07T01:47:35.873Z,71.70
2023-08-07T01:50:04.161Z,71.70
2023-08-07T01:52:32.132Z,71.50
2023-08-07T01:54:59.398Z,71.60
2023-08-07T01:57:26.927Z,71.40
2023-08-07T01:59:55.918Z,71.60
2023-08-07T02:03:41.586Z,71.70
2023-08-07T02:06:11.579Z,71.60
2023-08-07T02:08:40.304Z,71.50
2023-08-07T02:11:08.315Z,71.30
2023-08-07T02:13:41.859Z,71.40
2023-08-07T02:16:11.466Z,71.40
2023-08-07T02:18:39.009Z,71.30
2023-08-07T02:21:37.946Z,71.30
2023-08-07T02:24:06.545Z,71.50
2023-08-07T02:26:36.285Z,71.40
2023-08-07T02:29:08.551Z,71.40
2023-08-07T02:32:01.628Z,71.50
2023-08-07T02:34:29.426Z,71.70
2023-08-07T02:37:00.551Z,71.50
2023-08-07T02:39:27.713Z,71.30
2023-08-07T02:41:54.717Z,71.20
2023-08-07T02:44:23.729Z,71.20
2023-08-07T02:46:50.887Z,71.20
2023-08-07T02:49:17.821Z,71.10
2023-08-07T02:51:50.904Z,71.20
2023-08-07T03:03:23.512Z,70.80
2023-08-07T03:05:52.132Z,70.80
2023-08-07T03:08:25.034Z,71.30
2023-08-07T03:10:57.740Z,70.70
2023-08-07T03:13:26.552Z,70.60
2023-08-07T03:16:05.318Z,70.60
2023-08-07T03:18:33.207Z,70.70
2023-08-07T03:21:00.725Z,70.70
2023-08-07T03:23:28.621Z,70.70
2023-08-07T03:26:18.150Z,70.70
2023-08-07T03:28:50.158Z,70.70
2023-08-07T03:35:39.269Z,70.40
2023-08-07T03:38:08.961Z,70.40
2023-08-07T03:40:36.824Z,70.30
2023-08-07T03:43:05.698Z,70.20
2023-08-07T03:45:34.194Z,70.10
2023-08-07T03:48:02.536Z,70.20
2023-08-07T03:50:33.584Z,70.10
2023-08-07T03:53:02.400Z,69.90
2023-08-07T03:55:29.978Z,70.00
2023-08-07T03:57:57.113Z,69.90
2023-08-07T04:00:26.502Z,69.90
2023-08-07T04:02:54.524Z,69.90
2023-08-07T04:05:22.239Z,69.90
2023-08-07T04:07:49.311Z,69.90
2023-08-07T04:10:16.976Z,69.80
2023-08-07T04:12:45.460Z,69.90
2023-08-07T04:15:37.289Z,70.00
2023-08-07T04:18:07.248Z,69.80
2023-08-07T04:20:34.516Z,69.90
2023-08-07T04:23:01.487Z,69.90
2023-08-07T04:25:28.417Z,70.10
2023-08-07T04:27:56.657Z,70.20
2023-08-07T04:30:23.940Z,70.40
2023-08-07T04:32:51.273Z,70.50
2023-08-07T04:35:18.280Z,70.70
2023-08-07T04:37:45.213Z,70.90
2023-08-07T04:40:12.364Z,70.90
2023-08-07T04:42:39.295Z,71.00
2023-08-07T04:45:06.768Z,71.10
2023-08-07T04:47:34.578Z,71.20
2023-08-07T04:50:01.711Z,71.20
2023-08-07T04:52:29.290Z,71.40
2023-08-07T04:54:56.210Z,71.40
2023-08-07T04:57:23.278Z,71.50
2023-08-07T04:59:50.270Z,71.50
2023-08-07T05:02:17.295Z,71.60
2023-08-07T05:04:44.334Z,71.60
2023-08-07T05:07:11.950Z,71.70
2023-08-07T05:09:39.297Z,71.80
2023-08-07T05:12:07.948Z,71.80
2023-08-07T05:14:34.995Z,71.90
2023-08-07T05:17:02.073Z,71.80
2023-08-07T05:19:29.097Z,71.90
2023-08-07T05:21:56.215Z,71.80
2023-08-07T05:24:25.003Z,71.90
2023-08-07T05:26:52.037Z,71.90
2023-08-07T05:29:19.086Z,71.90
2023-08-07T05:31:46.152Z,71.90
2023-08-07T05:34:14.508Z,71.90
2023-08-07T05:36:43.768Z,71.80
2023-08-07T05:39:11.173Z,71.70
2023-08-07T05:41:39.826Z,71.90
2023-08-07T05:44:07.456Z,71.70
2023-08-07T05:46:35.234Z,71.60
2023-08-07T05:49:04.217Z,71.20
2023-08-07T05:51:31.704Z,71.50
2023-08-07T05:54:14.094Z,71.60
2023-08-07T05:56:44.722Z,71.70
2023-08-07T05:59:11.818Z,71.90
2023-08-07T06:01:39.068Z,71.60
2023-08-07T06:04:07.299Z,71.70
2023-08-07T06:06:36.842Z,71.80
2023-08-07T06:09:04.953Z,71.60
2023-08-07T06:11:32.336Z,71.70
2023-08-07T06:14:00.042Z,71.40
2023-08-07T06:16:28.556Z,71.30
2023-08-07T06:18:55.762Z,71.30
2023-08-07T06:21:22.752Z,71.00
2023-08-07T06:23:49.765Z,71.10
2023-08-07T06:26:17.029Z,70.70
2023-08-07T06:28:44.340Z,70.70
2023-08-07T06:31:16.097Z,70.30
2023-08-07T06:33:46.788Z,70.40
2023-08-07T06:36:13.865Z,70.50
2023-08-07T06:38:41.023Z,70.30
2023-08-07T06:41:08.021Z,70.30
2023-08-07T06:43:35.259Z,70.30
2023-08-07T06:46:03.823Z,69.90
2023-08-07T06:48:31.374Z,69.90
2023-08-07T06:50:59.836Z,69.80
2023-08-07T06:53:27.941Z,69.30
2023-08-07T06:55:57.403Z,69.10
2023-08-07T06:58:24.892Z,69.30
2023-08-07T07:00:51.806Z,69.10
2023-08-07T07:03:21.903Z,69.20
2023-08-07T07:05:51.676Z,69.30
2023-08-07T07:08:20.644Z,68.80
2023-08-07T07:10:48.824Z,69.30
2023-08-07T07:13:16.086Z,69.50
2023-08-07T07:15:44.088Z,68.40
2023-08-07T07:18:11.261Z,68.60
2023-08-07T07:20:38.503Z,68.60
2023-08-07T07:23:07.155Z,68.80
2023-08-07T07:25:34.848Z,68.70
2023-08-07T07:28:02.955Z,67.70
2023-08-07T07:30:30.392Z,67.90
2023-08-07T07:32:57.494Z,67.40
2023-08-07T07:35:24.587Z,67.60
2023-08-07T07:37:51.842Z,68.10
2023-08-07T07:40:18.877Z,68.40
2023-08-07T07:42:45.925Z,67.80
2023-08-07T07:45:13.000Z,68.70
2023-08-07T07:47:40.235Z,66.20
2023-08-07T07:50:09.859Z,64.70
2023-08-07T07:52:37.951Z,64.30
2023-08-07T07:55:06.378Z,62.20
2023-08-07T07:57:33.892Z,62.00
2023-08-07T08:00:02.562Z,62.30
2023-08-07T08:02:41.064Z,62.30
2023-08-07T08:05:10.575Z,62.80
2023-08-07T08:07:40.202Z,62.60
2023-08-07T08:10:09.665Z,62.40
2023-08-07T08:12:37.107Z,61.70
2023-08-07T08:15:05.161Z,61.70
2023-08-07T08:17:32.475Z,59.90
2023-08-07T08:19:59.594Z,59.50
2023-08-07T08:22:26.931Z,60.10
2023-08-07T08:24:53.944Z,59.50
2023-08-07T08:27:20.992Z,59.10
2023-08-07T08:29:48.062Z,59.00
2023-08-07T08:32:15.127Z,59.40
2023-08-07T08:34:42.980Z,59.50
2023-08-07T08:37:11.731Z,60.30
2023-08-07T08:39:38.728Z,60.40
2023-08-07T08:42:06.780Z,59.80
2023-08-07T08:44:40.123Z,59.20
2023-08-07T08:47:10.412Z,59.90
2023-08-07T08:49:44.822Z,60.70
2023-08-07T08:52:12.626Z,60.90
2023-08-07T08:54:44.204Z,61.80
2023-08-07T08:57:12.779Z,60.60
2023-08-07T08:59:41.287Z,58.20
2023-08-07T09:02:09.270Z,57.80
2023-08-07T09:04:36.325Z,57.30
2023-08-07T09:07:03.627Z,57.40
2023-08-07T09:09:32.682Z,57.50
2023-08-07T09:12:01.380Z,56.80
2023-08-07T09:14:33.005Z,56.50
2023-08-07T09:17:01.940Z,55.60
2023-08-07T09:19:29.195Z,54.90
2023-08-07T09:21:56.446Z,54.00
2023-08-07T09:24:23.769Z,53.20
2023-08-07T09:26:55.138Z,53.70
2023-08-07T09:29:23.932Z,53.30
2023-08-07T09:31:51.093Z,53.00
2023-08-07T09:34:21.728Z,52.00
2023-08-07T09:36:48.781Z,52.80
2023-08-07T09:39:15.953Z,53.20
2023-08-07T09:41:42.977Z,54.30
2023-08-07T09:44:16.760Z,55.50
2023-08-07T09:46:45.413Z,56.30
2023-08-07T09:49:14.780Z,58.00
2023-08-07T09:51:47.417Z,58.20
2023-08-07T09:54:16.919Z,57.60
2023-08-07T09:56:48.996Z,57.70
2023-08-07T09:59:16.215Z,57.90
2023-08-07T10:01:45.411Z,58.30
2023-08-07T10:04:16.728Z,57.70
2023-08-07T10:06:47.025Z,57.90
2023-08-07T10:09:13.988Z,59.10
2023-08-07T10:11:43.148Z,59.60
2023-08-07T10:14:10.685Z,58.70
2023-08-07T10:16:41.505Z,58.20
2023-08-07T10:19:12.377Z,58.50
2023-08-07T10:21:44.096Z,55.80
2023-08-07T10:24:12.439Z,54.30
2023-08-07T10:26:45.142Z,54.40
2023-08-07T10:29:16.654Z,54.30
2023-08-07T10:31:45.827Z,54.00
2023-08-07T10:34:12.939Z,53.90
2023-08-07T10:36:41.965Z,54.70
2023-08-07T10:39:12.467Z,55.60
2023-08-07T10:41:49.161Z,55.80
2023-08-07T10:44:21.502Z,56.20
2023-08-07T10:46:55.308Z,56.10
2023-08-07T10:49:36.145Z,54.80
2023-08-07T10:52:08.840Z,55.60
2023-08-07T10:54:47.242Z,57.10
2023-08-07T10:57:16.261Z,57.20
2023-08-07T11:00:00.880Z,57.30
2023-08-07T11:02:32.118Z,57.30
2023-08-07T11:05:01.538Z,57.70
2023-08-07T11:07:30.404Z,57.30
2023-08-07T11:09:59.573Z,57.00
2023-08-07T11:12:27.991Z,56.10
2023-08-07T11:14:59.182Z,55.60
2023-08-07T11:17:30.493Z,55.10
2023-08-07T11:19:57.976Z,55.30
2023-08-07T11:22:25.032Z,54.90
2023-08-07T11:24:52.578Z,54.50
2023-08-07T11:27:22.081Z,54.70
2023-08-07T11:29:57.413Z,55.00
2023-08-07T11:32:24.631Z,54.80
2023-08-07T11:34:59.337Z,55.10
2023-08-07T11:37:28.166Z,55.40
2023-08-07T11:40:02.406Z,55.30
2023-08-07T11:42:32.333Z,55.20
2023-08-07T11:45:02.144Z,54.70
2023-08-07T11:47:29.157Z,52.90
2023-08-07T11:49:56.424Z,53.40
2023-08-07T11:52:24.835Z,52.30
2023-08-07T11:54:54.783Z,51.80
2023-08-07T11:57:23.541Z,51.90
2023-08-07T11:59:54.199Z,52.50
2023-08-07T12:02:25.959Z,52.80
2023-08-07T12:04:58.963Z,52.50
2023-08-07T12:07:28.602Z,53.20
2023-08-07T12:09:56.734Z,53.10
2023-08-07T12:12:23.800Z,53.90
2023-08-07T12:14:56.678Z,53.10
2023-08-07T12:17:24.352Z,53.30
2023-08-07T12:19:51.756Z,53.00
2023-08-07T12:22:21.312Z,53.10
2023-08-07T12:24:48.931Z,53.40
2023-08-07T12:27:15.861Z,53.40
2023-08-07T12:29:42.876Z,52.30
2023-08-07T12:32:10.860Z,51.60
2023-08-07T12:35:15.299Z,52.50
2023-08-07T12:37:26.048Z,53.30
2023-08-07T12:42:25.185Z,53.70
2023-08-07T12:44:54.201Z,53.70
2023-08-07T12:47:21.283Z,53.60
2023-08-07T12:49:49.243Z,53.60
2023-08-07T12:52:16.879Z,53.60
2023-08-07T12:54:46.236Z,53.10
2023-08-07T12:57:13.337Z,53.50
2023-08-07T12:59:48.652Z,52.90
2023-08-07T13:02:17.984Z,52.20
2023-08-07T13:04:45.126Z,52.00
2023-08-07T13:07:12.360Z,52.60
2023-08-07T13:09:39.761Z,53.70
2023-08-07T13:12:07.777Z,54.30
2023-08-07T13:14:34.862Z,53.60
2023-08-07T13:17:01.970Z,53.50
2023-08-07T13:19:30.749Z,52.60
2023-08-07T13:21:58.069Z,51.60
2023-08-07T13:24:26.383Z,51.70
2023-08-07T13:26:53.433Z,51.30
2023-08-07T13:29:21.550Z,51.90
2023-08-07T13:31:49.473Z,51.60
2023-08-07T13:34:16.456Z,51.30
2023-08-07T13:36:46.809Z,51.30
2023-08-07T13:39:15.990Z,52.20
2023-08-07T13:41:43.175Z,52.20
2023-08-07T13:44:12.673Z,53.20
2023-08-07T13:46:41.050Z,52.30
2023-08-07T13:49:08.309Z,52.90
2023-08-07T13:51:35.332Z,53.00
2023-08-07T13:54:02.306Z,53.10
2023-08-07T13:56:29.363Z,53.10
2023-08-07T13:58:56.683Z,53.70
2023-08-07T14:01:23.729Z,53.90
2023-08-07T14:03:50.837Z,53.90
2023-08-07T14:06:17.885Z,54.00
2023-08-07T14:08:44.916Z,54.60
2023-08-07T14:11:12.929Z,54.80
2023-08-07T14:13:39.983Z,55.50
2023-08-07T14:16:08.852Z,55.90
2023-08-07T14:18:35.933Z,56.40
2023-08-07T14:21:03.703Z,56.70
2023-08-07T14:23:33.988Z,56.50
2023-08-07T14:26:02.601Z,56.70
2023-08-07T14:28:29.922Z,56.50
2023-08-07T14:31:01.227Z,56.40
2023-08-07T14:33:29.839Z,56.40
2023-08-07T14:35:56.946Z,56.30
2023-08-07T14:38:24.038Z,56.20
2023-08-07T14:40:52.311Z,57.20
2023-08-07T14:43:19.741Z,56.10
2023-08-07T14:45:46.792Z,55.20
2023-08-07T14:48:15.980Z,55.70
2023-08-07T14:50:43.150Z,56.10
2023-08-07T14:53:10.386Z,55.70
2023-08-07T14:55:37.442Z,55.50
2023-08-07T14:58:04.730Z,55.70
2023-08-07T15:00:32.189Z,56.00
2023-08-07T15:02:59.286Z,55.70
2023-08-07T15:05:26.449Z,55.20
2023-08-07T15:07:53.514Z,54.30
2023-08-07T15:10:22.853Z,55.20
2023-08-07T15:12:49.888Z,54.90
2023-08-07T15:15:16.985Z,54.90
2023-08-07T15:17:44.905Z,54.20
2023-08-07T15:20:12.439Z,54.30
2023-08-07T15:22:39.465Z,54.10
2023-08-07T15:25:07.873Z,54.50
2023-08-07T15:27:34.952Z,57.50
2023-08-07T15:30:02.467Z,57.80
2023-08-07T15:32:31.315Z,57.90
2023-08-07T15:34:59.049Z,58.30
2023-08-07T15:37:26.715Z,58.50
2023-08-07T15:39:53.823Z,58.90
2023-08-07T15:42:20.920Z,59.60
2023-08-07T15:44:48.158Z,59.70
2023-08-07T15:47:16.809Z,60.00
2023-08-07T15:49:45.630Z,60.30
2023-08-07T15:52:12.821Z,60.80
2023-08-07T15:54:40.543Z,61.30
2023-08-07T15:57:08.621Z,61.30
2023-08-07T15:59:36.062Z,61.20
2023-08-07T16:02:03.085Z,61.70
2023-08-07T16:04:30.613Z,60.50
2023-08-07T16:06:58.027Z,60.00
2023-08-07T16:09:27.263Z,58.20
2023-08-07T16:11:54.468Z,58.80
2023-08-07T16:14:23.149Z,59.00
2023-08-07T16:16:51.347Z,59.00
2023-08-07T16:19:18.353Z,59.00
2023-08-07T16:21:45.398Z,58.90
2023-08-07T16:24:12.449Z,59.00
2023-08-07T16:26:41.537Z,58.90
2023-08-07T16:29:10.472Z,59.60
2023-08-07T16:31:37.552Z,59.70
2023-08-07T16:34:04.725Z,59.80
2023-08-07T16:36:31.899Z,59.80
2023-08-07T16:38:59.531Z,59.40
2023-08-07T16:41:31.203Z,58.80
2023-08-07T16:44:01.902Z,59.90
2023-08-07T16:46:33.590Z,59.60
2023-08-07T16:49:00.795Z,58.60
2023-08-07T16:51:27.937Z,58.80
2023-08-07T16:53:55.011Z,58.40
2023-08-07T16:56:25.604Z,58.80
2023-08-07T16:58:57.541Z,58.00
2023-08-07T17:01:25.468Z,58.20
2023-08-07T17:03:52.880Z,57.90
2023-08-07T17:06:19.986Z,57.70
2023-08-07T17:08:50.301Z,57.40
2023-08-07T17:11:17.288Z,56.40
2023-08-07T17:13:46.293Z,55.60
2023-08-07T17:16:13.336Z,55.30
2023-08-07T17:18:41.365Z,55.00
2023-08-07T17:21:08.956Z,55.10
2023-08-07T17:23:35.963Z,54.80
2023-08-07T17:26:02.956Z,55.00
2023-08-07T17:28:31.564Z,54.90
2023-08-07T17:31:00.000Z,54.80
2023-08-07T17:33:27.623Z,55.00
2023-08-07T17:35:54.741Z,55.10
2023-08-07T17:38:21.829Z,54.60
2023-08-07T17:40:50.273Z,54.20
2023-08-07T17:43:17.364Z,54.80
2023-08-07T17:45:44.766Z,54.60
2023-08-07T17:48:12.010Z,54.70
2023-08-07T17:50:39.553Z,54.90
2023-08-07T17:53:06.576Z,54.80
2023-08-07T17:55:34.753Z,54.80
2023-08-07T17:58:02.068Z,54.70
2023-08-07T18:00:30.660Z,54.60
2023-08-07T18:02:58.373Z,55.00
2023-08-07T18:05:29.487Z,55.00
2023-08-07T18:07:56.573Z,55.20
2023-08-07T18:10:23.634Z,55.00
2023-08-07T18:12:50.817Z,55.00
2023-08-07T18:15:19.446Z,55.20
2023-08-07T18:17:47.811Z,55.40
2023-08-07T18:20:15.004Z,55.30
2023-08-07T18:22:44.475Z,55.50
2023-08-07T18:25:11.584Z,55.50
2023-08-07T18:27:38.702Z,55.70
2023-08-07T18:30:06.289Z,55.80
2023-08-07T18:32:34.886Z,55.70
2023-08-07T18:35:02.164Z,55.80
2023-08-07T18:37:29.201Z,55.60
2023-08-07T18:39:56.307Z,55.50
2023-08-07T18:42:23.515Z,55.50
2023-08-07T18:44:50.520Z,55.30
2023-08-07T18:47:17.539Z,55.50
2023-08-07T18:49:44.768Z,54.90
2023-08-07T18:52:11.748Z,54.60
2023-08-07T18:54:40.999Z,54.40
2023-08-07T18:57:08.096Z,54.90
2023-08-07T18:59:36.032Z,53.80
2023-08-07T19:02:03.086Z,54.00
2023-08-07T19:04:30.116Z,54.10
2023-08-07T19:06:57.406Z,53.80
2023-08-07T19:09:26.318Z,53.50
2023-08-07T19:11:53.392Z,53.50
2023-08-07T19:14:20.453Z,53.20
2023-08-07T19:16:50.154Z,52.90
2023-08-07T19:19:17.714Z,52.80
2023-08-07T19:21:45.215Z,52.60
2023-08-07T19:24:14.034Z,52.40
2023-08-07T19:26:42.646Z,52.70
2023-08-07T19:29:11.396Z,52.90
2023-08-07T19:31:40.099Z,52.90
2023-08-07T19:34:11.410Z,52.80
2023-08-07T19:36:41.039Z,52.70
2023-08-07T19:39:09.601Z,52.90
2023-08-07T19:41:36.910Z,52.50
2023-08-07T19:44:04.279Z,52.60
2023-08-07T19:46:31.923Z,52.50
2023-08-07T19:48:59.019Z,52.90
2023-08-07T19:51:26.400Z,53.00
2023-08-07T19:54:01.317Z,53.40
2023-08-07T19:56:30.828Z,53.50
2023-08-07T19:59:00.817Z,53.60
2023-08-07T20:01:29.316Z,53.90
2023-08-07T20:03:56.540Z,54.10
2023-08-07T20:06:25.934Z,54.30
2023-08-07T20:08:56.227Z,54.50
2023-08-07T20:11:23.828Z,54.60
2023-08-07T20:13:51.580Z,54.80
2023-08-07T20:16:18.678Z,54.90
2023-08-07T20:18:45.761Z,55.40
2023-08-07T20:21:14.361Z,55.30
2023-08-07T20:23:43.502Z,55.30
2023-08-07T20:26:10.600Z,55.50
2023-08-07T20:28:37.635Z,55.60
2023-08-07T20:31:04.697Z,56.10
2023-08-07T20:33:34.205Z,56.40
2023-08-07T20:36:01.650Z,56.60
2023-08-07T20:38:28.708Z,56.70
2023-08-07T20:40:56.193Z,56.80
2023-08-07T20:43:24.887Z,56.80
2023-08-07T20:45:51.939Z,56.90
2023-08-07T20:48:19.036Z,57.00
2023-08-07T20:50:45.993Z,56.80
2023-08-07T20:53:13.140Z,56.40
2023-08-07T20:55:41.562Z,56.40
2023-08-07T20:58:08.711Z,56.40
2023-08-07T21:00:35.910Z,56.10
2023-08-07T21:03:04.905Z,56.00
2023-08-07T21:05:32.034Z,56.00
2023-08-07T21:07:59.180Z,55.40
2023-08-07T21:10:26.200Z,55.60
2023-08-07T21:12:53.448Z,55.70
2023-08-07T21:15:20.796Z,55.80
2023-08-07T21:17:47.977Z,55.70
2023-08-07T21:20:17.387Z,55.30
2023-08-07T21:22:44.446Z,55.00
2023-08-07T21:25:11.601Z,54.70
2023-08-07T21:27:40.480Z,55.10
2023-08-07T21:30:08.317Z,55.20
2023-08-07T21:32:37.816Z,55.30
2023-08-07T21:35:06.313Z,55.40
2023-08-07T21:37:35.976Z,55.30
2023-08-07T21:40:04.479Z,55.40
2023-08-07T21:42:32.787Z,55.50
2023-08-07T21:44:59.829Z,55.60
2023-08-07T21:47:29.225Z,55.80
2023-08-07T21:49:58.156Z,55.90
2023-08-07T21:52:27.477Z,56.70
2023-08-07T21:54:55.659Z,56.10
2023-08-07T21:57:22.785Z,56.10
2023-08-07T21:59:51.621Z,56.00
2023-08-07T22:02:21.166Z,56.00
2023-08-07T22:04:50.920Z,55.90
2023-08-07T22:07:19.569Z,55.60
2023-08-07T22:09:47.868Z,55.20
2023-08-07T22:12:19.944Z,55.30
2023-08-07T22:14:48.668Z,55.30
2023-08-07T22:17:18.076Z,54.90
2023-08-07T22:19:51.704Z,55.10
2023-08-07T22:22:31.978Z,55.00
2023-08-07T22:25:03.218Z,55.00
2023-08-07T22:27:34.074Z,55.00
2023-08-07T22:30:05.931Z,54.90
2023-08-07T22:32:34.201Z,55.00
2023-08-07T22:35:05.374Z,55.00
2023-08-07T22:37:33.262Z,54.90
2023-08-07T22:40:02.053Z,54.90
2023-08-07T22:42:29.898Z,54.90
2023-08-07T22:45:01.590Z,54.80
2023-08-07T22:47:32.601Z,54.70
2023-08-07T22:50:03.686Z,54.90
2023-08-07T22:52:30.739Z,54.80
2023-08-07T22:54:58.899Z,54.90
2023-08-07T22:57:26.018Z,55.00
2023-08-07T22:59:53.461Z,55.00
2023-08-07T23:02:21.631Z,55.20
2023-08-07T23:04:48.826Z,55.30
2023-08-07T23:07:17.130Z,55.40
2023-08-07T23:09:44.524Z,55.50
2023-08-07T23:12:11.621Z,55.50
2023-08-07T23:14:38.628Z,55.40
2023-08-07T23:17:05.675Z,55.50
2023-08-07T23:19:33.551Z,55.50
2023-08-07T23:22:01.034Z,55.50
2023-08-07T23:24:28.259Z,55.50
2023-08-07T23:26:55.217Z,55.40
2023-08-07T23:29:23.071Z,55.40
2023-08-07T23:31:50.151Z,55.50
2023-08-07T23:34:17.264Z,55.60
2023-08-07T23:36:44.442Z,55.80
2023-08-07T23:39:11.521Z,55.90
2023-08-07T23:41:40.405Z,55.80
2023-08-07T23:44:07.501Z,55.90
2023-08-07T23:46:34.744Z,55.80
2023-08-07T23:49:01.774Z,55.80
2023-08-07T23:51:29.667Z,55.90
2023-08-07T23:53:57.577Z,56.00
2023-08-07T23:56:24.973Z,56.10
2023-08-07T23:58:52.066Z,55.90
